sensor_id;sensor_type;location;lat;lon;timestamp;pressure;altitude;pressure_sealevel;temperature;humidity
16255;BME280;8235;52.198;9.904;2024-02-15T00:01:17;100914.41;;;11.07;100.00
16255;BME280;8235;52.198;9.904;2024-02-15T00:03:44;100915.91;;;11.11;100.00
16255;BME280;8235;52.198;9.904;2024-02-15T00:06:12;100917.63;;;11.12;100.00
16255;BME280;8235;52.198;9.904;2024-02-15T00:08:39;100913.16;;;11.13;100.00
16255;BME280;8235;52.198;9.904;2024-02-15T00:11:05;100909.63;;;11.12;100.00
16255;BME280;8235;52.198;9.904;2024-02-15T00:13:34;100911.94;;;11.19;100.00
16255;BME280;8235;52.198;9.904;2024-02-15T00:16:01;100904.69;;;11.21;100.00
16255;BME280;8235;52.198;9.904;2024-02-15T00:18:28;100917.00;;;11.23;100.00
16255;BME280;8235;52.198;9.904;2024-02-15T00:20:54;100910.72;;;11.24;100.00
16255;BME280;8235;52.198;9.904;2024-02-15T00:23:22;100902.91;;;11.21;100.00
16255;BME280;8235;52.198;9.904;2024-02-15T00:25:48;100898.41;;;11.22;100.00
16255;BME280;8235;52.198;9.904;2024-02-15T00:28:15;100904.69;;;11.21;100.00
16255;BME280;8235;52.198;9.904;2024-02-15T00:30:42;100906.41;;;11.22;100.00
16255;BME280;8235;52.198;9.904;2024-02-15T00:33:08;100902.91;;;11.21;100.00
16255;BME280;8235;52.198;9.904;2024-02-15T00:35:35;100905.19;;;11.27;100.00
16255;BME280;8235;52.198;9.904;2024-02-15T00:38:02;100908.50;;;11.31;100.00
16255;BME280;8235;52.198;9.904;2024-02-15T00:40:30;100907.72;;;11.29;100.00
16255;BME280;8235;52.198;9.904;2024-02-15T00:42:57;100909.56;;;11.28;100.00
16255;BME280;8235;52.198;9.904;2024-02-15T00:45:23;100908.72;;;11.28;100.00
16255;BME280;8235;52.198;9.904;2024-02-15T00:47:50;100913.06;;;11.29;100.00
16255;BME280;8235;52.198;9.904;2024-02-15T00:50:16;100916.50;;;11.31;100.00
16255;BME280;8235;52.198;9.904;2024-02-15T00:52:43;100912.25;;;11.28;100.00
16255;BME280;8235;52.198;9.904;2024-02-15T00:55:09;100914.91;;;11.28;100.00
16255;BME280;8235;52.198;9.904;2024-02-15T00:57:37;100915.63;;;11.30;100.00
16255;BME280;8235;52.198;9.904;2024-02-15T01:00:05;100917.44;;;11.30;100.00
16255;BME280;8235;52.198;9.904;2024-02-15T01:02:34;100911.38;;;11.28;100.00
16255;BME280;8235;52.198;9.904;2024-02-15T01:05:01;100915.53;;;11.32;100.00
16255;BME280;8235;52.198;9.904;2024-02-15T01:07:28;100914.69;;;11.31;100.00
16255;BME280;8235;52.198;9.904;2024-02-15T01:09:55;100923.53;;;11.32;100.00
16255;BME280;8235;52.198;9.904;2024-02-15T01:12:21;100922.50;;;11.34;100.00
16255;BME280;8235;52.198;9.904;2024-02-15T01:14:49;100925.25;;;11.33;100.00
16255;BME280;8235;52.198;9.904;2024-02-15T01:17:16;100921.84;;;11.31;100.00
16255;BME280;8235;52.198;9.904;2024-02-15T01:19:42;100921.47;;;11.37;100.00
16255;BME280;8235;52.198;9.904;2024-02-15T01:22:09;100927.84;;;11.34;100.00
16255;BME280;8235;52.198;9.904;2024-02-15T01:24:35;100921.47;;;11.37;100.00
16255;BME280;8235;52.198;9.904;2024-02-15T01:27:02;100916.22;;;11.35;100.00
16255;BME280;8235;52.198;9.904;2024-02-15T01:29:28;100919.94;;;11.33;100.00
16255;BME280;8235;52.198;9.904;2024-02-15T01:31:56;100914.78;;;11.30;100.00
16255;BME280;8235;52.198;9.904;2024-02-15T01:34:23;100915.53;;;11.32;100.00
16255;BME280;8235;52.198;9.904;2024-02-15T01:36:49;100919.94;;;11.33;100.00
16255;BME280;8235;52.198;9.904;2024-02-15T01:39:16;100920.13;;;11.30;100.00
16255;BME280;8235;52.198;9.904;2024-02-15T01:41:46;100922.69;;;11.31;100.00
16255;BME280;8235;52.198;9.904;2024-02-15T01:44:13;100920.88;;;11.32;100.00
16255;BME280;8235;52.198;9.904;2024-02-15T01:46:40;100925.34;;;11.31;100.00
16255;BME280;8235;52.198;9.904;2024-02-15T01:49:08;100909.25;;;11.33;100.00
16255;BME280;8235;52.198;9.904;2024-02-15T01:51:35;100906.69;;;11.31;100.00
16255;BME280;8235;52.198;9.904;2024-02-15T01:54:02;100903.16;;;11.31;100.00
16255;BME280;8235;52.198;9.904;2024-02-15T01:56:29;100910.88;;;11.35;100.00
16255;BME280;8235;52.198;9.904;2024-02-15T01:58:57;100909.06;;;11.36;100.00
16255;BME280;8235;52.198;9.904;2024-02-15T02:01:23;100903.84;;;11.34;100.00
16255;BME280;8235;52.198;9.904;2024-02-15T02:03:50;100898.78;;;11.30;100.00
16255;BME280;8235;52.198;9.904;2024-02-15T02:06:18;100898.50;;;11.34;100.00
16255;BME280;8235;52.198;9.904;2024-02-15T02:08:45;100900.97;;;11.37;100.00
16255;BME280;8235;52.198;9.904;2024-02-15T02:11:11;100891.28;;;11.36;100.00
16255;BME280;8235;52.198;9.904;2024-02-15T02:13:38;100886.13;;;11.33;100.00
16255;BME280;8235;52.198;9.904;2024-02-15T02:16:04;100871.94;;;11.33;100.00
16255;BME280;8235;52.198;9.904;2024-02-15T02:18:49;100877.44;;;11.30;100.00
16255;BME280;8235;52.198;9.904;2024-02-15T02:21:17;100875.97;;;11.26;100.00
16255;BME280;8235;52.198;9.904;2024-02-15T02:23:45;100883.94;;;11.26;100.00
16255;BME280;8235;52.198;9.904;2024-02-15T02:26:16;100887.47;;;11.26;100.00
16255;BME280;8235;52.198;9.904;2024-02-15T02:28:43;100880.81;;;11.19;100.00
16255;BME280;8235;52.198;9.904;2024-02-15T02:31:09;100878.13;;;11.19;100.00
16255;BME280;8235;52.198;9.904;2024-02-15T02:33:37;100891.66;;;11.16;100.00
16255;BME280;8235;52.198;9.904;2024-02-15T02:36:04;100877.47;;;11.16;100.00
16255;BME280;8235;52.198;9.904;2024-02-15T02:38:32;100883.56;;;11.18;100.00
16255;BME280;8235;52.198;9.904;2024-02-15T02:40:59;100877.38;;;11.17;100.00
16255;BME280;8235;52.198;9.904;2024-02-15T02:43:26;100887.00;;;11.20;100.00
16255;BME280;8235;52.198;9.904;2024-02-15T02:45:53;100883.56;;;11.18;100.00
16255;BME280;8235;52.198;9.904;2024-02-15T02:48:20;100890.59;;;11.19;100.00
16255;BME280;8235;52.198;9.904;2024-02-15T02:50:46;100893.28;;;11.19;100.00
16255;BME280;8235;52.198;9.904;2024-02-15T02:53:13;100893.09;;;11.22;100.00
16255;BME280;8235;52.198;9.904;2024-02-15T02:55:40;100890.41;;;11.22;100.00
16255;BME280;8235;52.198;9.904;2024-02-15T02:58:07;100890.41;;;11.22;100.00
16255;BME280;8235;52.198;9.904;2024-02-15T03:00:34;100887.66;;;11.23;100.00
16255;BME280;8235;52.198;9.904;2024-02-15T03:03:03;100893.84;;;11.24;100.00
16255;BME280;8235;52.198;9.904;2024-02-15T03:05:30;100889.66;;;11.20;100.00
16255;BME280;8235;52.198;9.904;2024-02-15T03:07:57;100886.81;;;11.23;100.00
16255;BME280;8235;52.198;9.904;2024-02-15T03:10:23;100886.81;;;11.23;100.00
16255;BME280;8235;52.198;9.904;2024-02-15T03:12:50;100882.25;;;11.25;100.00
16255;BME280;8235;52.198;9.904;2024-02-15T03:15:16;100886.81;;;11.23;100.00
16255;BME280;8235;52.198;9.904;2024-02-15T03:17:48;100874.25;;;11.25;100.00
16255;BME280;8235;52.198;9.904;2024-02-15T03:20:15;100890.25;;;11.25;100.00
16255;BME280;8235;52.198;9.904;2024-02-15T03:22:50;100883.00;;;11.27;100.00
16255;BME280;8235;52.198;9.904;2024-02-15T03:25:17;100879.56;;;11.25;100.00
16255;BME280;8235;52.198;9.904;2024-02-15T03:27:44;100887.56;;;11.25;100.00
16255;BME280;8235;52.198;9.904;2024-02-15T03:30:11;100888.25;;;11.28;100.00
16255;BME280;8235;52.198;9.904;2024-02-15T03:32:38;100896.25;;;11.28;100.00
16255;BME280;8235;52.198;9.904;2024-02-15T03:35:07;100898.78;;;11.30;100.00
16255;BME280;8235;52.198;9.904;2024-02-15T03:37:34;100906.06;;;11.28;100.00
16255;BME280;8235;52.198;9.904;2024-02-15T03:40:02;100905.91;;;11.29;100.00
16255;BME280;8235;52.198;9.904;2024-02-15T03:42:30;100901.44;;;11.30;100.00
16255;BME280;8235;52.198;9.904;2024-02-15T03:44:56;100907.44;;;11.33;100.00
16255;BME280;8235;52.198;9.904;2024-02-15T03:47:23;100898.59;;;11.33;100.00
16255;BME280;8235;52.198;9.904;2024-02-15T03:49:49;100899.47;;;11.33;100.00
16255;BME280;8235;52.198;9.904;2024-02-15T03:52:20;100901.16;;;11.34;100.00
16255;BME280;8235;52.198;9.904;2024-02-15T03:54:47;100910.03;;;11.35;100.00
16255;BME280;8235;52.198;9.904;2024-02-15T03:57:13;100905.56;;;11.35;100.00
16255;BME280;8235;52.198;9.904;2024-02-15T03:59:42;100910.69;;;11.38;100.00
16255;BME280;8235;52.198;9.904;2024-02-15T04:02:08;100905.56;;;11.35;100.00
16255;BME280;8235;52.198;9.904;2024-02-15T04:04:39;100912.69;;;11.35;100.00
16255;BME280;8235;52.198;9.904;2024-02-15T04:07:07;100914.22;;;11.39;100.00
16255;BME280;8235;52.198;9.904;2024-02-15T04:09:35;100915.94;;;11.40;100.00
16255;BME280;8235;52.198;9.904;2024-02-15T04:12:02;100926.59;;;11.40;100.00
16255;BME280;8235;52.198;9.904;2024-02-15T04:14:28;100924.88;;;11.39;100.00
16255;BME280;8235;52.198;9.904;2024-02-15T04:16:55;100921.94;;;11.43;100.00
16255;BME280;8235;52.198;9.904;2024-02-15T04:19:22;100916.63;;;11.43;100.00
16255;BME280;8235;52.198;9.904;2024-02-15T04:21:48;100917.38;;;11.45;100.00
16255;BME280;8235;52.198;9.904;2024-02-15T04:24:16;100919.19;;;11.45;100.00
16255;BME280;8235;52.198;9.904;2024-02-15T04:26:44;100920.91;;;11.46;100.00
16255;BME280;8235;52.198;9.904;2024-02-15T04:29:12;100918.00;;;11.49;100.00
16255;BME280;8235;52.198;9.904;2024-02-15T04:31:40;100918.69;;;11.53;100.00
16255;BME280;8235;52.198;9.904;2024-02-15T04:34:08;100923.16;;;11.52;100.00
16255;BME280;8235;52.198;9.904;2024-02-15T04:36:35;100922.41;;;11.50;100.00
16255;BME280;8235;52.198;9.904;2024-02-15T04:39:01;100914.22;;;11.53;100.00
16255;BME280;8235;52.198;9.904;2024-02-15T04:41:29;100905.34;;;11.53;100.00
16255;BME280;8235;52.198;9.904;2024-02-15T04:43:57;100901.63;;;11.55;100.00
16255;BME280;8235;52.198;9.904;2024-02-15T04:46:23;100909.72;;;11.54;100.00
16255;BME280;8235;52.198;9.904;2024-02-15T04:48:50;100907.63;;;11.59;100.00
16255;BME280;8235;52.198;9.904;2024-02-15T04:51:17;100904.97;;;11.59;100.00
16255;BME280;8235;52.198;9.904;2024-02-15T04:53:45;100906.88;;;11.57;100.00
16255;BME280;8235;52.198;9.904;2024-02-15T04:56:13;100913.25;;;11.54;100.00
16255;BME280;8235;52.198;9.904;2024-02-15T04:58:39;100903.44;;;11.55;100.00
16255;BME280;8235;52.198;9.904;2024-02-15T05:01:13;100905.34;;;11.53;100.00
16255;BME280;8235;52.198;9.904;2024-02-15T05:03:40;100908.59;;;11.58;100.00
16255;BME280;8235;52.198;9.904;2024-02-15T05:06:12;100909.63;;;11.55;100.00
16255;BME280;8235;52.198;9.904;2024-02-15T05:08:39;100910.41;;;11.57;100.00
16255;BME280;8235;52.198;9.904;2024-02-15T05:11:08;100905.06;;;11.57;100.00
16255;BME280;8235;52.198;9.904;2024-02-15T05:13:39;100905.63;;;11.62;100.00
16255;BME280;8235;52.198;9.904;2024-02-15T05:16:06;100909.44;;;11.58;100.00
16255;BME280;8235;52.198;9.904;2024-02-15T05:18:34;100918.13;;;11.62;100.00
16255;BME280;8235;52.198;9.904;2024-02-15T05:21:01;100917.16;;;11.63;100.00
16255;BME280;8235;52.198;9.904;2024-02-15T05:23:28;100904.78;;;11.62;100.00
16255;BME280;8235;52.198;9.904;2024-02-15T05:25:55;100901.25;;;11.61;100.00
16255;BME280;8235;52.198;9.904;2024-02-15T05:28:23;100909.25;;;11.61;100.00
16255;BME280;8235;52.198;9.904;2024-02-15T05:31:09;100919.84;;;11.63;100.00
16255;BME280;8235;52.198;9.904;2024-02-15T05:33:37;100925.91;;;11.65;100.00
16255;BME280;8235;52.198;9.904;2024-02-15T05:36:08;100910.88;;;11.64;100.00
16255;BME280;8235;52.198;9.904;2024-02-15T05:38:35;100912.47;;;11.66;100.00
16255;BME280;8235;52.198;9.904;2024-02-15T05:41:01;100899.88;;;11.68;100.00
16255;BME280;8235;52.198;9.904;2024-02-15T05:43:28;100903.50;;;11.67;100.00
16255;BME280;8235;52.198;9.904;2024-02-15T05:45:55;100902.66;;;11.67;100.00
16255;BME280;8235;52.198;9.904;2024-02-15T05:48:23;100905.22;;;11.68;100.00
16255;BME280;8235;52.198;9.904;2024-02-15T05:50:51;100905.03;;;11.71;100.00
16255;BME280;8235;52.198;9.904;2024-02-15T05:53:19;100905.22;;;11.68;100.00
16255;BME280;8235;52.198;9.904;2024-02-15T05:55:46;100904.47;;;11.66;100.00
16255;BME280;8235;52.198;9.904;2024-02-15T05:58:15;100911.41;;;11.69;100.00
16255;BME280;8235;52.198;9.904;2024-02-15T06:00:42;100907.81;;;11.70;100.00
16255;BME280;8235;52.198;9.904;2024-02-15T06:03:09;100899.88;;;11.68;100.00
16255;BME280;8235;52.198;9.904;2024-02-15T06:05:38;100910.75;;;11.65;100.00
16255;BME280;8235;52.198;9.904;2024-02-15T06:08:05;100910.75;;;11.65;100.00
16255;BME280;8235;52.198;9.904;2024-02-15T06:10:31;100913.41;;;11.65;100.00
16255;BME280;8235;52.198;9.904;2024-02-15T06:12:58;100921.03;;;11.71;100.00
16255;BME280;8235;52.198;9.904;2024-02-15T06:15:25;100923.81;;;11.70;100.00
16255;BME280;8235;52.198;9.904;2024-02-15T06:17:52;100918.66;;;11.67;100.00
16255;BME280;8235;52.198;9.904;2024-02-15T06:20:19;100924.75;;;11.69;100.00
16255;BME280;8235;52.198;9.904;2024-02-15T06:22:46;100924.66;;;11.70;100.00
16255;BME280;8235;52.198;9.904;2024-02-15T06:25:14;100921.81;;;11.73;100.00
16255;BME280;8235;52.198;9.904;2024-02-15T06:27:45;100922.66;;;11.74;100.00
16255;BME280;8235;52.198;9.904;2024-02-15T06:30:14;100925.44;;;11.72;100.00
16255;BME280;8235;52.198;9.904;2024-02-15T06:33:10;100919.25;;;11.72;100.00
16255;BME280;8235;52.198;9.904;2024-02-15T06:35:56;100922.94;;;11.69;100.00
16255;BME280;8235;52.198;9.904;2024-02-15T06:38:43;100923.13;;;11.66;100.00
16255;BME280;8235;52.198;9.904;2024-02-15T06:41:30;100927.53;;;11.67;100.00
16255;BME280;8235;52.198;9.904;2024-02-15T06:43:56;100920.19;;;11.71;100.00
16255;BME280;8235;52.198;9.904;2024-02-15T06:46:23;100928.38;;;11.68;100.00
16255;BME280;8235;52.198;9.904;2024-02-15T06:48:49;100931.81;;;11.70;100.00
16255;BME280;8235;52.198;9.904;2024-02-15T06:51:19;100930.19;;;11.67;100.00
16255;BME280;8235;52.198;9.904;2024-02-15T06:53:45;100938.41;;;11.64;100.00
16255;BME280;8235;52.198;9.904;2024-02-15T06:56:12;100933.28;;;11.61;100.00
16255;BME280;8235;52.198;9.904;2024-02-15T06:58:40;100933.28;;;11.61;100.00
16255;BME280;8235;52.198;9.904;2024-02-15T07:01:07;100943.00;;;11.62;100.00
16255;BME280;8235;52.198;9.904;2024-02-15T07:03:33;100943.00;;;11.62;100.00
16255;BME280;8235;52.198;9.904;2024-02-15T07:06:00;100941.38;;;11.60;100.00
16255;BME280;8235;52.198;9.904;2024-02-15T07:08:28;100937.56;;;11.64;100.00
16255;BME280;8235;52.198;9.904;2024-02-15T07:10:54;100935.84;;;11.63;100.00
16255;BME280;8235;52.198;9.904;2024-02-15T07:13:21;100930.19;;;11.67;100.00
16255;BME280;8235;52.198;9.904;2024-02-15T07:15:49;100928.47;;;11.66;100.00
16255;BME280;8235;52.198;9.904;2024-02-15T07:18:16;100928.47;;;11.66;100.00
16255;BME280;8235;52.198;9.904;2024-02-15T07:20:45;100933.72;;;11.68;100.00
16255;BME280;8235;52.198;9.904;2024-02-15T07:23:11;100928.28;;;11.69;100.00
16255;BME280;8235;52.198;9.904;2024-02-15T07:25:38;100935.53;;;11.67;100.00
16255;BME280;8235;52.198;9.904;2024-02-15T07:28:05;100932.09;;;11.65;100.00
16255;BME280;8235;52.198;9.904;2024-02-15T07:30:33;100929.34;;;11.67;100.00
16255;BME280;8235;52.198;9.904;2024-02-15T07:33:01;100923.72;;;11.71;100.00
16255;BME280;8235;52.198;9.904;2024-02-15T07:35:27;100914.94;;;11.69;100.00
16255;BME280;8235;52.198;9.904;2024-02-15T07:37:54;100913.13;;;11.70;100.00
16255;BME280;8235;52.198;9.904;2024-02-15T07:40:24;100906.94;;;11.69;100.00
16255;BME280;8235;52.198;9.904;2024-02-15T07:42:55;100904.84;;;11.74;100.00
16255;BME280;8235;52.198;9.904;2024-02-15T07:45:21;100905.66;;;11.76;100.00
16255;BME280;8235;52.198;9.904;2024-02-15T07:47:48;100894.28;;;11.73;100.00
16255;BME280;8235;52.198;9.904;2024-02-15T07:50:17;100907.50;;;11.74;100.00
16255;BME280;8235;52.198;9.904;2024-02-15T07:52:48;100908.47;;;11.73;100.00
16255;BME280;8235;52.198;9.904;2024-02-15T07:55:16;100907.25;;;11.79;100.00
16255;BME280;8235;52.198;9.904;2024-02-15T07:57:42;100910.03;;;11.77;100.00
16255;BME280;8235;52.198;9.904;2024-02-15T08:00:09;100918.03;;;11.77;100.00
16255;BME280;8235;52.198;9.904;2024-02-15T08:02:37;100918.03;;;11.77;100.00
16255;BME280;8235;52.198;9.904;2024-02-15T08:05:06;100910.19;;;11.74;100.00
16255;BME280;8235;52.198;9.904;2024-02-15T08:07:37;100918.28;;;11.73;100.00
16255;BME280;8235;52.198;9.904;2024-02-15T08:10:05;100914.66;;;11.74;100.00
16255;BME280;8235;52.198;9.904;2024-02-15T08:12:33;100906.00;;;11.70;100.00
16255;BME280;8235;52.198;9.904;2024-02-15T08:14:59;100908.31;;;11.76;100.00
16255;BME280;8235;52.198;9.904;2024-02-15T08:17:26;100899.44;;;11.76;100.00
16255;BME280;8235;52.198;9.904;2024-02-15T08:19:54;100895.97;;;11.74;100.00
16255;BME280;8235;52.198;9.904;2024-02-15T08:22:21;100903.53;;;11.81;100.00
16255;BME280;8235;52.198;9.904;2024-02-15T08:24:52;100910.69;;;11.81;100.00
16255;BME280;8235;52.198;9.904;2024-02-15T08:27:18;100904.50;;;11.80;100.00
16255;BME280;8235;52.198;9.904;2024-02-15T08:29:45;100890.72;;;11.87;100.00
16255;BME280;8235;52.198;9.904;2024-02-15T08:32:11;100898.66;;;11.88;100.00
16255;BME280;8235;52.198;9.904;2024-02-15T08:34:39;100895.78;;;11.91;100.00
16255;BME280;8235;52.198;9.904;2024-02-15T08:37:06;100895.69;;;11.93;100.00
16255;BME280;8235;52.198;9.904;2024-02-15T08:39:32;100899.13;;;11.95;100.00
16255;BME280;8235;52.198;9.904;2024-02-15T08:42:00;100899.13;;;11.95;100.00
16255;BME280;8235;52.198;9.904;2024-02-15T08:44:26;100899.03;;;11.96;100.00
16255;BME280;8235;52.198;9.904;2024-02-15T08:46:53;100891.78;;;11.98;100.00
16255;BME280;8235;52.198;9.904;2024-02-15T08:49:21;100886.00;;;12.04;100.00
16255;BME280;8235;52.198;9.904;2024-02-15T08:51:47;100886.66;;;12.08;100.00
16255;BME280;8235;52.198;9.904;2024-02-15T08:54:14;100884.00;;;12.08;100.00
16255;BME280;8235;52.198;9.904;2024-02-15T08:56:40;100882.00;;;12.11;100.00
16255;BME280;8235;52.198;9.904;2024-02-15T08:59:08;100883.50;;;12.15;100.00
16255;BME280;8235;52.198;9.904;2024-02-15T09:01:34;100891.94;;;12.22;100.00
16255;BME280;8235;52.198;9.904;2024-02-15T09:04:01;100883.75;;;12.25;100.00
16255;BME280;8235;52.198;9.904;2024-02-15T09:06:27;100885.44;;;12.26;100.00
16255;BME280;8235;52.198;9.904;2024-02-15T09:08:54;100892.50;;;12.27;100.00
16255;BME280;8235;52.198;9.904;2024-02-15T09:11:22;100884.41;;;12.29;100.00
16255;BME280;8235;52.198;9.904;2024-02-15T09:13:48;100890.41;;;12.32;100.00
16255;BME280;8235;52.198;9.904;2024-02-15T09:16:18;100885.72;;;12.36;100.00
16255;BME280;8235;52.198;9.904;2024-02-15T09:18:47;100881.94;;;12.38;100.00
16255;BME280;8235;52.198;9.904;2024-02-15T09:21:13;100877.47;;;12.39;100.00
16255;BME280;8235;52.198;9.904;2024-02-15T09:23:39;100877.16;;;12.43;100.00
16255;BME280;8235;52.198;9.904;2024-02-15T09:26:06;100877.16;;;12.43;100.00
16255;BME280;8235;52.198;9.904;2024-02-15T09:28:35;100888.59;;;12.45;100.00
16255;BME280;8235;52.198;9.904;2024-02-15T09:31:01;100885.44;;;12.53;100.00
16255;BME280;8235;52.198;9.904;2024-02-15T09:33:28;100888.72;;;12.57;100.00
16255;BME280;8235;52.198;9.904;2024-02-15T09:35:55;100889.69;;;12.56;100.00
16255;BME280;8235;52.198;9.904;2024-02-15T09:38:21;100888.97;;;12.54;100.00
16255;BME280;8235;52.198;9.904;2024-02-15T09:40:50;100886.72;;;12.60;100.00
16255;BME280;8235;52.198;9.904;2024-02-15T09:43:17;100885.75;;;12.61;100.00
16255;BME280;8235;52.198;9.904;2024-02-15T09:45:43;100885.44;;;12.66;100.00
16255;BME280;8235;52.198;9.904;2024-02-15T09:48:10;100888.03;;;12.67;100.00
16255;BME280;8235;52.198;9.904;2024-02-15T09:50:39;100891.53;;;12.68;100.00
16255;BME280;8235;52.198;9.904;2024-02-15T09:53:08;100887.72;;;12.72;100.00
16255;BME280;8235;52.198;9.904;2024-02-15T09:55:35;100884.81;;;12.75;100.00
16255;BME280;8235;52.198;9.904;2024-02-15T09:58:04;100890.69;;;12.80;100.00
16255;BME280;8235;52.198;9.904;2024-02-15T10:00:31;100890.69;;;12.80;100.00
16255;BME280;8235;52.198;9.904;2024-02-15T10:03:00;100881.72;;;12.81;100.00
16255;BME280;8235;52.198;9.904;2024-02-15T10:05:28;100888.78;;;12.82;100.00
16255;BME280;8235;52.198;9.904;2024-02-15T10:07:57;100896.50;;;12.86;100.00
16255;BME280;8235;52.198;9.904;2024-02-15T10:10:26;100898.41;;;12.84;100.00
16255;BME280;8235;52.198;9.904;2024-02-15T10:12:54;100897.56;;;12.84;100.00
16255;BME280;8235;52.198;9.904;2024-02-15T10:15:34;100896.50;;;12.86;100.00
16255;BME280;8235;52.198;9.904;2024-02-15T10:18:03;100899.16;;;12.86;100.00
16255;BME280;8235;52.198;9.904;2024-02-15T10:20:30;100913.28;;;12.89;100.00
16255;BME280;8235;52.198;9.904;2024-02-15T10:23:10;100918.28;;;12.93;100.00
16255;BME280;8235;52.198;9.904;2024-02-15T10:25:37;100919.03;;;12.95;100.00
16255;BME280;8235;52.198;9.904;2024-02-15T10:28:05;100911.66;;;12.99;100.00
16255;BME280;8235;52.198;9.904;2024-02-15T10:30:33;100911.78;;;12.97;100.00
16255;BME280;8235;52.198;9.904;2024-02-15T10:33:00;100903.66;;;12.99;100.00
16255;BME280;8235;52.198;9.904;2024-02-15T10:35:27;100909.75;;;13.01;100.00
16255;BME280;8235;52.198;9.904;2024-02-15T10:38:06;100905.06;;;13.04;100.00
16255;BME280;8235;52.198;9.904;2024-02-15T10:40:35;100910.41;;;13.04;100.00
16255;BME280;8235;52.198;9.904;2024-02-15T10:43:03;100905.06;;;13.04;100.00
16255;BME280;8235;52.198;9.904;2024-02-15T10:45:31;100906.97;;;13.02;100.00
16255;BME280;8235;52.198;9.904;2024-02-15T10:47:58;100908.13;;;12.98;100.00
16255;BME280;8235;52.198;9.904;2024-02-15T10:50:24;100905.38;;;13.00;100.00
16255;BME280;8235;52.198;9.904;2024-02-15T10:52:54;100908.03;;;13.00;100.00
16255;BME280;8235;52.198;9.904;2024-02-15T10:55:26;100900.00;;;13.00;100.00
16255;BME280;8235;52.198;9.904;2024-02-15T10:57:58;100899.16;;;12.99;100.00
16255;BME280;8235;52.198;9.904;2024-02-15T11:00:30;100897.56;;;12.97;100.00
16255;BME280;8235;52.198;9.904;2024-02-15T11:03:01;100893.06;;;12.97;100.00
16255;BME280;8235;52.198;9.904;2024-02-15T11:05:32;100888.56;;;12.98;100.00
16255;BME280;8235;52.198;9.904;2024-02-15T11:08:00;100870.91;;;12.95;100.00
16255;BME280;8235;52.198;9.904;2024-02-15T11:10:27;100873.81;;;12.92;100.00
16255;BME280;8235;52.198;9.904;2024-02-15T11:12:55;100880.97;;;12.92;100.00
16255;BME280;8235;52.198;9.904;2024-02-15T11:15:43;100874.03;;;12.89;100.00
16255;BME280;8235;52.198;9.904;2024-02-15T11:18:41;100870.28;;;12.92;100.00
16255;BME280;8235;52.198;9.904;2024-02-15T11:21:09;100872.09;;;12.91;100.00
16255;BME280;8235;52.198;9.904;2024-02-15T11:23:35;100877.44;;;12.91;100.00
16255;BME280;8235;52.198;9.904;2024-02-15T11:26:03;100869.41;;;12.91;100.00
16255;BME280;8235;52.198;9.904;2024-02-15T11:28:38;100866.75;;;12.91;100.00
16255;BME280;8235;52.198;9.904;2024-02-15T11:31:52;100865.03;;;12.90;100.00
16255;BME280;8235;52.198;9.904;2024-02-15T11:34:43;100859.38;;;12.95;100.00
16255;BME280;8235;52.198;9.904;2024-02-15T11:40:11;100854.03;;;12.95;100.00
16255;BME280;8235;52.198;9.904;2024-02-15T11:42:38;100847.94;;;12.93;100.00
16255;BME280;8235;52.198;9.904;2024-02-15T11:45:07;100848.38;;;12.99;100.00
16255;BME280;8235;52.198;9.904;2024-02-15T11:47:36;100838.84;;;12.95;100.00
16255;BME280;8235;52.198;9.904;2024-02-15T11:50:05;100834.25;;;12.97;100.00
16255;BME280;8235;52.198;9.904;2024-02-15T11:52:33;100836.91;;;12.97;100.00
16255;BME280;8235;52.198;9.904;2024-02-15T11:55:07;100824.94;;;13.03;100.00
16255;BME280;8235;52.198;9.904;2024-02-15T11:57:35;100821.19;;;13.05;100.00
16255;BME280;8235;52.198;9.904;2024-02-15T12:00:21;100817.31;;;13.09;100.00
16255;BME280;8235;52.198;9.904;2024-02-15T12:03:03;100806.41;;;13.12;100.00
16255;BME280;8235;52.198;9.904;2024-02-15T12:05:49;100801.06;;;13.12;100.00
16255;BME280;8235;52.198;9.904;2024-02-15T12:08:33;100813.47;;;13.13;100.00
16255;BME280;8235;52.198;9.904;2024-02-15T12:11:17;100811.59;;;13.15;100.00
16255;BME280;8235;52.198;9.904;2024-02-15T12:14:01;100815.28;;;13.13;100.00
16255;BME280;8235;52.198;9.904;2024-02-15T12:16:46;100800.09;;;13.13;100.00
16255;BME280;8235;52.198;9.904;2024-02-15T12:19:30;100807.28;;;13.13;100.00
16255;BME280;8235;52.198;9.904;2024-02-15T12:21:57;100813.41;;;13.15;100.00
16255;BME280;8235;52.198;9.904;2024-02-15T12:24:24;100807.72;;;13.19;100.00
16255;BME280;8235;52.198;9.904;2024-02-15T12:26:59;100802.91;;;13.25;100.00
16255;BME280;8235;52.198;9.904;2024-02-15T12:29:26;100798.53;;;13.24;100.00
16255;BME280;8235;52.198;9.904;2024-02-15T12:31:55;100798.53;;;13.24;100.00
16255;BME280;8235;52.198;9.904;2024-02-15T12:34:22;100792.44;;;13.22;100.00
16255;BME280;8235;52.198;9.904;2024-02-15T12:36:48;100782.47;;;13.24;100.00
16255;BME280;8235;52.198;9.904;2024-02-15T12:39:24;100783.34;;;13.24;100.00
16255;BME280;8235;52.198;9.904;2024-02-15T12:41:53;100788.53;;;13.26;100.00
16255;BME280;8235;52.198;9.904;2024-02-15T12:44:19;100783.19;;;13.26;100.00
16255;BME280;8235;52.198;9.904;2024-02-15T12:46:55;100784.19;;;13.25;100.00
16255;BME280;8235;52.198;9.904;2024-02-15T12:49:30;100780.53;;;13.26;100.00
16255;BME280;8235;52.198;9.904;2024-02-15T12:55:13;100778.19;;;13.21;100.00
16255;BME280;8235;52.198;9.904;2024-02-15T12:57:40;100777.56;;;13.17;100.00
16255;BME280;8235;52.198;9.904;2024-02-15T13:00:10;100775.00;;;13.16;100.00
16255;BME280;8235;52.198;9.904;2024-02-15T13:02:41;100764.31;;;13.16;100.00
16255;BME280;8235;52.198;9.904;2024-02-15T13:05:08;100766.88;;;13.17;100.00